Airfield :
LOGIN :

Register | Disclaimer

   EN    FR    IT 

 










Legend :    VFR   Marginal VFR   IFR   Intensive IFR   Very Intensive IFR
Visi :
Ceiling :
>= 8 km
>= 3000ft
5 to 8 km
1000 to 3000 ft
1500m to 5 km
500 to 1000 ft
800 to 1500m
200 to 500 ft
< 800m
< 200 ft
Symbols :   Thunderstorms  Fog  Heavy snow  Heavy precipitations  Wind > 20 kt
SIGMETs :     Misc.  Thunderstorms  Icing  Turbulence  Mountain Waves  Volcanic Ashes






- Airport Elevation : 1187 ft


LIBV - Gioia del Colle Bari

CURRENT METAR :
  • 222355Z 17006KT 0600 0400S R32L/0600 R14R/0800 FG OVC002 16/15 Q1018 RMK OVC VIS MIN 0400S WIND THR32 17006KT WIND THR14 19006KT RED

EXPIRED METARs :
  • 222326Z 17008KT 1200 0900SE R32L/0900 R14R/0650 FG BKN002 15/14 Q1018 RMK BKN VIS MIN 0900SE WIND THR32 17007KT WIND THR14 17006KT AMB
  • 222314Z 17007KT 5000 BR BKN002 15/14 Q1018 RMK BKN VIS MIN 5000 WIND THR32 18006KT WIND THR14 18006KT AMB
  • 222255Z 18006KT 8000 NSC 15/14 Q1018 RMK FEW FEW100 VIS MIN 8000 WIND THR32 17005KT WIND THR14 21006KT BLU
  • 222155Z 18005KT CAVOK 15/13 Q1018 RMK SCT SCT100 VIS MIN 9999 WIND THR32 16008KT WIND THR14 20004KT BLU

TAF TAF LIBV
Valid from the 23 at 00:00 until the 23 at 09:00 UTC


222300Z 2300/2309 18010KT CAVOK
TEMPO 2300/2305 5000 BR NSC



MET'MAP, your aeronautical weather chart ! - Copyright ORBIFLY December 2007 - Disclaimer

ORBIFLY MET'MAP TEAM :

Programming & Development : Alexandra Zaïnal
Concept & original design : Baudouin d'Aumeries
Assistance for programming : Marc-Olivier Méhu
Technical & hardware support : Manuel Goepfert

Contact : metmap@orbifly.com




SOURCES & CREDITS :

   NOAA